Time;durP1;ratioP1;P1;durP2;ratioP2;P2;SDS_P1;SDS_P2;PMS_P1;PMS_P2;Temp;Humidity;BMP_temperature;BMP_pressure;BME280_temperature;BME280_humidity;BME280_pressure;Samples;Min_cycle;Max_cycle;Signal;HPM_P1;HPM_P2
2024/01/14 00:01:35;;;;;;;49.55;27.75;;;;;;;5.72;63.27;101619.03;5139467;27;20043;-67
2024/01/14 00:04:03;;;;;;;49.25;26.63;;;;;;;5.75;63.02;101622.19;5143974;27;20050;-66
2024/01/14 00:06:31;;;;;;;51.88;28.17;;;;;;;5.78;63.29;101631.69;5140197;27;20066;-66
2024/01/14 00:08:59;;;;;;;51.35;29.42;;;;;;;5.78;62.93;101619.19;5143415;27;20053;-66
2024/01/14 00:11:27;;;;;;;48.17;28.73;;;;;;;5.81;62.84;101626.00;5144728;27;20054;-66
2024/01/14 00:13:55;;;;;;;49.33;27.65;;;;;;;5.77;62.70;101628.19;5145050;27;20100;-66
2024/01/14 00:16:24;;;;;;;54.67;29.92;;;;;;;5.78;63.16;101627.19;5144231;27;20047;-66
2024/01/14 00:18:52;;;;;;;48.80;27.00;;;;;;;5.78;63.15;101621.84;5143208;27;20043;-66
2024/01/14 00:21:20;;;;;;;52.83;28.83;;;;;;;5.80;63.21;101616.34;5141462;27;20047;-66
2024/01/14 00:23:48;;;;;;;55.45;29.52;;;;;;;5.84;63.04;101607.00;5145183;27;20068;-66
2024/01/14 00:26:16;;;;;;;54.58;31.42;;;;;;;5.86;62.98;101613.00;5144153;27;20135;-67
2024/01/14 00:28:43;;;;;;;51.05;27.83;;;;;;;5.88;62.84;101605.66;5142127;27;20043;-66
2024/01/14 00:31:11;;;;;;;50.58;29.05;;;;;;;5.86;63.05;101595.16;5145145;27;20123;-66
2024/01/14 00:33:41;;;;;;;53.38;29.27;;;;;;;5.86;62.65;101587.16;5142045;27;20112;-67
2024/01/14 00:36:10;;;;;;;49.33;29.00;;;;;;;5.87;63.05;101572.81;5141819;27;20050;-67
2024/01/14 00:38:38;;;;;;;55.65;29.23;;;;;;;5.85;62.87;101576.66;5141447;27;20048;-67
2024/01/14 00:41:06;;;;;;;48.13;28.90;;;;;;;5.84;62.90;101577.66;5145491;27;20063;-67
2024/01/14 00:43:33;;;;;;;52.00;27.50;;;;;;;5.82;63.00;101575.16;5143120;27;20043;-67
2024/01/14 00:46:02;;;;;;;50.88;28.00;;;;;;;5.82;63.04;101575.16;5144216;27;20104;-66
2024/01/14 00:48:30;;;;;;;49.83;28.23;;;;;;;5.81;62.92;101578.84;5139257;27;20047;-66
2024/01/14 00:51:00;;;;;;;52.20;29.05;;;;;;;5.80;63.22;101563.00;5144557;27;20058;-66
2024/01/14 00:53:28;;;;;;;52.05;27.88;;;;;;;5.78;63.27;101568.50;5141413;27;20054;-66
2024/01/14 00:55:56;;;;;;;50.58;27.55;;;;;;;5.77;62.97;101566.00;5143419;27;20051;-66
2024/01/14 00:58:23;;;;;;;52.33;28.17;;;;;;;5.77;63.13;101563.34;5145701;27;20526;-66
2024/01/14 01:00:51;;;;;;;48.38;27.50;;;;;;;5.76;63.23;101564.34;5149683;27;20046;-66
2024/01/14 01:03:19;;;;;;;53.67;28.55;;;;;;;5.74;63.41;101550.34;5144784;27;20047;-66
2024/01/14 01:05:47;;;;;;;52.95;28.38;;;;;;;5.73;63.28;101562.88;5151283;27;20103;-66
2024/01/14 01:08:16;;;;;;;54.45;28.73;;;;;;;5.72;63.34;101553.19;5144918;27;20066;-67
2024/01/14 01:10:44;;;;;;;50.40;26.77;;;;;;;5.67;63.29;101542.22;5148444;27;20047;-66
2024/01/14 01:13:12;;;;;;;48.88;27.90;;;;;;;5.69;63.54;101548.22;5143301;27;20047;-66
2024/01/14 01:15:40;;;;;;;53.90;29.00;;;;;;;5.70;63.66;101552.53;5144341;27;20127;-66
2024/01/14 01:18:08;;;;;;;48.45;27.88;;;;;;;5.67;63.45;101555.56;5149595;27;20047;-66
2024/01/14 01:20:36;;;;;;;55.30;28.67;;;;;;;5.68;63.56;101551.88;5146258;27;20051;-67
2024/01/14 01:23:04;;;;;;;46.97;27.20;;;;;;;5.65;63.35;101546.91;5148054;27;20047;-66
2024/01/14 01:25:33;;;;;;;51.05;28.15;;;;;;;5.63;63.39;101542.72;5150816;27;20074;-66
2024/01/14 01:28:01;;;;;;;48.30;27.95;;;;;;;5.61;63.60;101542.06;5150759;27;20063;-66
2024/01/14 01:30:29;;;;;;;57.67;30.60;;;;;;;5.61;63.80;101542.06;5144155;27;20072;-67
2024/01/14 01:32:57;;;;;;;48.95;26.77;;;;;;;5.59;63.76;101536.09;5150789;27;20066;-66
2024/01/14 01:35:25;;;;;;;46.42;27.50;;;;;;;5.59;63.70;101528.91;5158134;27;20092;-67
2024/01/14 01:37:53;;;;;;;49.90;27.60;;;;;;;5.60;63.70;101527.09;5148411;27;20054;-67
2024/01/14 01:40:22;;;;;;;54.28;28.85;;;;;;;5.59;63.56;101526.25;5144005;27;20046;-67
2024/01/14 01:42:51;;;;;;;53.63;26.95;;;;;;;5.57;63.65;101518.41;5150593;27;20047;-67
2024/01/14 01:45:18;;;;;;;51.92;28.13;;;;;;;5.57;63.59;101538.91;5149710;27;20043;-68
2024/01/14 01:47:47;;;;;;;50.22;27.08;;;;;;;5.57;63.79;101534.41;5153028;27;20039;-67
2024/01/14 01:50:15;;;;;;;50.88;27.15;;;;;;;5.57;63.62;101528.25;5150069;27;20663;-67
2024/01/14 01:52:43;;;;;;;51.13;28.02;;;;;;;5.56;63.74;101530.09;5152554;27;20047;-67
2024/01/14 01:55:12;;;;;;;53.45;28.45;;;;;;;5.54;63.81;101525.94;5149485;27;20107;-67
2024/01/14 01:57:40;;;;;;;58.80;27.17;;;;;;;5.44;63.75;101501.31;5149634;27;20444;-66
2024/01/14 02:00:11;;;;;;;49.95;26.35;;;;;;;5.53;63.51;101518.94;5153308;27;20055;-66
2024/01/14 02:02:42;;;;;;;51.38;26.45;;;;;;;5.53;63.87;101521.59;5154029;27;20055;-67
2024/01/14 02:05:11;;;;;;;53.72;27.48;;;;;;;5.50;63.49;101508.63;5152008;27;20074;-66
2024/01/14 02:07:39;;;;;;;53.85;27.58;;;;;;;5.46;63.73;101513.47;5153316;27;20174;-67
2024/01/14 02:10:07;;;;;;;54.88;27.92;;;;;;;5.51;63.83;101508.44;5152179;27;20044;-66
2024/01/14 02:12:35;;;;;;;51.85;29.08;;;;;;;5.51;63.76;101504.94;5155660;27;20103;-67
2024/01/14 02:15:03;;;;;;;49.58;27.48;;;;;;;5.52;63.93;101499.44;5149472;27;20480;-67
2024/01/14 02:17:32;;;;;;;51.30;28.38;;;;;;;5.51;63.95;101495.13;5151486;27;20142;-66
2024/01/14 02:20:01;;;;;;;52.72;27.55;;;;;;;5.50;63.93;101496.13;5158584;27;20050;-66
2024/01/14 02:22:30;;;;;;;52.03;28.40;;;;;;;5.50;63.86;101492.63;5149570;27;20048;-67
2024/01/14 02:25:00;;;;;;;50.63;27.02;;;;;;;5.50;63.82;101487.28;5154676;27;20043;-67
2024/01/14 02:27:28;;;;;;;51.75;27.27;;;;;;;5.48;63.73;101492.78;5151577;27;20062;-66
2024/01/14 02:29:57;;;;;;;47.10;27.40;;;;;;;5.49;63.87;101482.97;5150633;27;20071;-67
2024/01/14 02:32:26;;;;;;;47.72;25.95;;;;;;;5.47;63.57;101488.47;5151115;27;20042;-67
2024/01/14 02:34:53;;;;;;;49.10;27.95;;;;;;;5.46;63.98;101485.97;5151235;27;20043;-67
2024/01/14 02:37:21;;;;;;;49.38;28.13;;;;;;;5.47;63.90;101490.31;5138156;27;20123;-67
2024/01/14 02:39:49;;;;;;;49.58;26.00;;;;;;;5.45;63.85;101487.81;5147607;27;20043;-67
2024/01/14 02:42:18;;;;;;;49.85;28.35;;;;;;;5.45;63.90;101487.81;5147114;27;20039;-67
2024/01/14 02:44:46;;;;;;;53.03;27.63;;;;;;;5.44;63.78;101482.66;5137091;27;20053;-67
2024/01/14 02:47:14;;;;;;;48.97;26.45;;;;;;;5.44;63.86;101474.66;5147700;27;20059;-66
2024/01/14 02:49:42;;;;;;;55.17;29.17;;;;;;;5.42;63.94;101482.81;5145778;27;20043;-66
2024/01/14 02:52:10;;;;;;;51.90;29.13;;;;;;;5.42;63.71;101487.31;5144420;27;20043;-67
2024/01/14 02:54:38;;;;;;;53.58;28.02;;;;;;;5.42;63.93;101482.00;5146599;27;20454;-67
2024/01/14 02:57:06;;;;;;;51.45;28.92;;;;;;;5.32;63.90;101465.38;5150605;27;20045;-66
2024/01/14 02:59:37;;;;;;;51.92;29.55;;;;;;;5.38;63.88;101470.84;5146711;27;20080;-67
2024/01/14 03:02:05;;;;;;;50.05;28.23;;;;;;;5.38;64.00;101478.84;5153454;27;20046;-66
2024/01/14 03:04:33;;;;;;;48.88;27.15;;;;;;;5.37;63.82;101469.19;5148283;27;20047;-67
2024/01/14 03:07:01;;;;;;;49.72;26.85;;;;;;;5.38;63.97;101444.19;5109162;27;20164;-66
2024/01/14 03:09:29;;;;;;;46.78;27.48;;;;;;;5.39;63.85;101431.69;5050927;27;20053;-67
2024/01/14 03:11:57;;;;;;;52.78;28.95;;;;;;;5.39;63.71;101435.19;5080449;27;20086;-66
2024/01/14 03:14:24;;;;;;;52.08;27.25;;;;;;;5.38;63.83;101436.19;5062251;27;20476;-67
2024/01/14 03:16:53;;;;;;;44.65;26.15;;;;;;;5.37;63.70;101433.69;5079899;27;20110;-67
2024/01/14 03:19:21;;;;;;;49.50;27.55;;;;;;;5.36;63.89;101432.88;5055506;27;20046;-66
2024/01/14 03:21:52;;;;;;;47.50;26.73;;;;;;;5.36;64.01;101432.03;5084910;27;20065;-67
2024/01/14 03:24:20;;;;;;;49.33;27.25;;;;;;;5.34;64.10;101428.72;5091832;27;20057;-66
2024/01/14 03:26:47;;;;;;;47.42;27.77;;;;;;;5.37;63.92;101428.38;5061876;27;20045;-66
2024/01/14 03:29:15;;;;;;;51.72;27.92;;;;;;;5.38;63.72;101427.38;5097527;27;20456;-66
2024/01/14 03:31:43;;;;;;;47.63;27.10;;;;;;;5.36;63.77;101422.22;5064349;27;20105;-66
2024/01/14 03:34:12;;;;;;;51.85;26.00;;;;;;;5.36;63.79;101413.38;5057567;27;20049;-66
2024/01/14 03:36:40;;;;;;;48.00;26.60;;;;;;;5.35;63.71;101406.41;5064657;27;20042;-66
2024/01/14 03:39:08;;;;;;;51.95;26.70;;;;;;;5.33;63.91;101401.25;5099315;27;20045;-66
2024/01/14 03:41:36;;;;;;;50.17;27.45;;;;;;;5.33;63.99;101406.56;5092863;27;20068;-66
2024/01/14 03:44:04;;;;;;;52.72;28.20;;;;;;;5.32;63.67;101396.91;5071016;27;20041;-66
2024/01/14 03:46:32;;;;;;;47.08;25.80;;;;;;;5.33;63.65;101395.06;5079971;27;20047;-66
2024/01/14 03:49:00;;;;;;;46.83;25.90;;;;;;;5.32;63.96;101391.59;5068891;27;20049;-66
2024/01/14 03:51:29;;;;;;;48.80;27.02;;;;;;;5.30;63.87;101392.75;5065641;27;20047;-66
2024/01/14 03:53:57;;;;;;;48.58;25.90;;;;;;;5.28;63.76;101392.94;5085335;27;20043;-67
2024/01/14 03:56:25;;;;;;;44.72;25.70;;;;;;;5.29;63.99;101388.44;5073511;27;20053;-67
2024/01/14 03:58:53;;;;;;;46.08;25.98;;;;;;;5.28;63.92;101390.28;5089695;27;20071;-67
2024/01/14 04:01:20;;;;;;;47.40;25.02;;;;;;;5.28;63.85;101394.78;5070912;27;20049;-67
2024/01/14 04:03:48;;;;;;;44.67;24.90;;;;;;;5.27;63.82;101390.44;5070760;27;20053;-66
2024/01/14 04:06:20;;;;;;;38.80;23.42;;;;;;;5.26;63.98;101394.94;5113771;27;20047;-67
2024/01/14 04:08:49;;;;;;;44.20;24.55;;;;;;;5.26;63.65;101391.44;5134274;27;20073;-67
2024/01/14 04:11:17;;;;;;;43.22;24.27;;;;;;;5.27;63.77;101387.78;5129222;27;20118;-66
2024/01/14 04:13:45;;;;;;;41.42;24.58;;;;;;;5.25;63.95;101379.97;5130553;27;20043;-67
2024/01/14 04:16:14;;;;;;;47.47;25.98;;;;;;;5.25;63.80;101377.28;5130306;27;20043;-66
2024/01/14 04:18:42;;;;;;;42.72;24.10;;;;;;;5.25;63.79;101382.63;5129989;27;20077;-67
2024/01/14 04:21:09;;;;;;;40.70;24.15;;;;;;;5.25;63.73;101382.63;5128085;27;20063;-66
2024/01/14 04:23:37;;;;;;;45.50;24.17;;;;;;;5.23;63.76;101379.31;5131112;27;20046;-66
2024/01/14 04:26:07;;;;;;;40.50;23.77;;;;;;;5.23;63.74;101377.47;5133694;27;20068;-67
2024/01/14 04:28:34;;;;;;;40.65;24.48;;;;;;;5.21;63.63;101375.97;5123233;27;20047;-66
2024/01/14 04:31:02;;;;;;;43.65;24.45;;;;;;;5.21;63.70;101382.13;5130813;27;20112;-67
2024/01/14 04:33:30;;;;;;;44.85;23.85;;;;;;;5.19;64.23;101378.84;5134522;27;20043;-67
2024/01/14 04:35:58;;;;;;;44.92;24.30;;;;;;;5.20;64.15;101377.00;5126299;27;20084;-66
2024/01/14 04:38:26;;;;;;;39.15;22.10;;;;;;;5.20;63.94;101382.34;5136331;27;20058;-67
2024/01/14 04:40:54;;;;;;;40.70;23.25;;;;;;;5.20;63.80;101371.69;5131584;27;20073;-67
2024/01/14 04:43:23;;;;;;;40.42;23.83;;;;;;;5.20;64.21;101380.47;5132334;27;20047;-67
2024/01/14 04:45:51;;;;;;;39.47;22.55;;;;;;;5.21;64.00;101366.16;5132420;27;20043;-67
2024/01/14 04:48:19;;;;;;;42.58;23.92;;;;;;;5.20;63.82;101367.16;5132855;27;20529;-67
2024/01/14 04:50:47;;;;;;;38.20;22.55;;;;;;;5.19;63.86;101370.84;5135138;27;20051;-67
2024/01/14 04:53:15;;;;;;;41.15;23.65;;;;;;;5.18;63.90;101361.19;5129761;27;20077;-67
2024/01/14 04:55:43;;;;;;;40.22;22.55;;;;;;;5.18;63.93;101360.38;5128832;27;20051;-67
2024/01/14 04:58:10;;;;;;;42.40;22.25;;;;;;;5.17;63.65;101350.72;5134260;28;20047;-67
2024/01/14 05:00:40;;;;;;;38.80;22.48;;;;;;;5.16;64.02;101352.56;5133724;28;20051;-67
2024/01/14 05:03:08;;;;;;;40.88;22.92;;;;;;;5.16;63.92;101347.22;5129749;28;20044;-67
2024/01/14 05:05:35;;;;;;;38.97;20.58;;;;;;;5.13;63.73;101336.09;5138505;28;20580;-66
2024/01/14 05:08:04;;;;;;;37.47;21.63;;;;;;;5.16;63.72;101338.41;5150061;27;20047;-67
2024/01/14 05:10:32;;;;;;;37.85;21.95;;;;;;;5.15;64.15;101340.22;5142921;27;20046;-67
2024/01/14 05:12:59;;;;;;;38.05;21.15;;;;;;;5.15;63.81;101334.91;5147474;27;20043;-67
2024/01/14 05:15:27;;;;;;;40.15;21.85;;;;;;;5.14;63.90;101338.56;5153451;27;20118;-66
2024/01/14 05:17:56;;;;;;;38.30;20.67;;;;;;;5.14;63.83;101338.56;5144731;27;20043;-67
2024/01/14 05:20:24;;;;;;;36.63;20.80;;;;;;;5.15;63.93;101339.41;5141674;27;20047;-67
2024/01/14 05:22:52;;;;;;;36.33;20.52;;;;;;;5.13;63.70;101334.25;5152282;27;20494;-67
2024/01/14 05:25:20;;;;;;;34.45;20.90;;;;;;;5.13;63.97;101325.44;5149361;27;20107;-67
2024/01/14 05:27:49;;;;;;;35.13;20.17;;;;;;;5.12;63.96;101316.59;5150726;27;20046;-67
2024/01/14 05:30:16;;;;;;;32.88;18.63;;;;;;;5.13;63.76;101315.59;5149452;27;20054;-66
2024/01/14 05:32:44;;;;;;;35.28;20.35;;;;;;;5.12;63.61;101316.59;5150598;27;20039;-67
2024/01/14 05:35:14;;;;;;;34.00;19.42;;;;;;;5.08;63.65;101312.63;5148650;27;20115;-68
2024/01/14 05:37:41;;;;;;;37.70;19.02;;;;;;;5.10;63.98;101307.97;5155924;27;20035;-68
2024/01/14 05:40:11;;;;;;;33.72;19.02;;;;;;;5.10;64.08;101309.78;5154842;27;20055;-67
2024/01/14 05:42:40;;;;;;;32.53;19.98;;;;;;;5.10;63.56;101310.63;5152397;27;20068;-68
2024/01/14 05:45:10;;;;;;;33.97;20.65;;;;;;;5.09;63.84;101308.13;5152439;27;20110;-68
2024/01/14 05:47:38;;;;;;;34.72;19.88;;;;;;;5.08;63.71;101304.63;5157448;27;20035;-68
2024/01/14 05:50:07;;;;;;;36.13;20.23;;;;;;;5.08;63.76;101298.47;5161645;27;20055;-67
2024/01/14 05:52:37;;;;;;;35.83;19.42;;;;;;;5.09;64.30;101302.81;5148324;27;20426;-68
2024/01/14 05:55:05;;;;;;;36.63;21.55;;;;;;;5.05;64.00;101289.00;5151732;27;20051;-68
2024/01/14 05:57:33;;;;;;;35.10;20.63;;;;;;;5.07;63.66;101299.50;5157990;27;20047;-68
2024/01/14 06:00:01;;;;;;;36.53;19.13;;;;;;;5.07;64.09;101296.81;5156126;27;20093;-67
2024/01/14 06:02:29;;;;;;;39.00;19.98;;;;;;;5.07;63.91;101289.66;5157487;27;20038;-68
2024/01/14 06:04:57;;;;;;;35.40;21.08;;;;;;;5.19;63.19;101288.25;4791371;27;10000072;-68
2024/01/14 06:07:25;;;;;;;27.73;18.42;;;;;;;5.32;62.84;101277.00;4788207;27;9999913;-69
2024/01/14 06:09:54;;;;;;;35.47;19.38;;;;;;;5.55;62.30;101280.47;5149576;27;20058;-67
2024/01/14 06:12:22;;;;;;;35.75;20.00;;;;;;;5.72;61.87;101281.19;5144672;27;20047;-68
2024/01/14 06:14:50;;;;;;;38.60;21.17;;;;;;;5.91;61.38;101273.72;5153809;27;20051;-68
2024/01/14 06:17:18;;;;;;;33.83;17.75;;;;;;;6.04;60.51;101269.44;5147509;27;20106;-67
2024/01/14 06:19:45;;;;;;;33.42;18.88;;;;;;;6.22;60.02;101263.75;5151088;27;20381;-68
2024/01/14 06:22:13;;;;;;;33.95;19.92;;;;;;;6.39;59.91;101270.56;5150344;27;20051;-67
2024/01/14 06:24:41;;;;;;;31.88;18.20;;;;;;;6.54;59.01;101267.88;5153703;27;20047;-67
2024/01/14 06:27:10;;;;;;;35.58;18.88;;;;;;;6.59;58.34;101264.66;5148374;27;20058;-67
2024/01/14 06:29:40;;;;;;;32.05;18.00;;;;;;;6.72;58.06;101270.19;5150349;27;20125;-68
2024/01/14 06:32:08;;;;;;;33.50;19.40;;;;;;;6.67;58.73;101256.56;5142837;27;20047;-68
2024/01/14 06:34:35;;;;;;;32.05;18.05;;;;;;;6.55;58.56;101256.19;5155428;27;20047;-67
2024/01/14 06:37:04;;;;;;;36.28;19.55;;;;;;;6.35;59.33;101247.91;5143774;27;20054;-68
2024/01/14 06:39:32;;;;;;;32.72;19.88;;;;;;;6.17;59.65;101248.28;5149983;27;20047;-68
2024/01/14 06:42:00;;;;;;;31.92;18.60;;;;;;;6.03;60.55;101246.44;5142898;27;20049;-68
2024/01/14 06:44:30;;;;;;;33.67;19.02;;;;;;;5.93;60.99;101247.69;5152390;27;20248;-69
2024/01/14 06:46:57;;;;;;;30.55;17.70;;;;;;;5.84;61.05;101245.06;5136723;27;20043;-68
2024/01/14 06:49:25;;;;;;;33.08;17.95;;;;;;;5.75;61.45;101240.81;5159716;27;20046;-68
2024/01/14 06:51:53;;;;;;;36.28;18.80;;;;;;;5.68;61.90;101239.88;5152519;27;20074;-65
2024/01/14 06:54:21;;;;;;;29.05;16.90;;;;;;;5.64;61.88;101238.59;5145848;27;20039;-68
2024/01/14 06:56:49;;;;;;;31.63;17.13;;;;;;;5.60;61.98;101231.13;5144491;27;20065;-68
2024/01/14 06:59:19;;;;;;;33.42;16.98;;;;;;;5.55;62.02;101235.16;5151823;27;20072;-68
2024/01/14 07:01:48;;;;;;;33.78;19.08;;;;;;;5.52;62.24;101219.53;5146124;27;20159;-68
2024/01/14 07:04:17;;;;;;;32.85;17.90;;;;;;;5.48;62.33;101228.06;5147463;27;20506;-68
2024/01/14 07:06:45;;;;;;;30.98;18.92;;;;;;;5.44;62.40;101224.94;5142549;27;20058;-67
2024/01/14 07:09:13;;;;;;;29.70;17.17;;;;;;;5.40;62.35;101225.47;5149901;27;20057;-69
2024/01/14 07:11:41;;;;;;;31.60;17.33;;;;;;;5.38;62.28;101230.13;5149615;27;20513;-67
2024/01/14 07:14:09;;;;;;;31.80;17.98;;;;;;;5.34;62.61;101229.66;5147043;27;20118;-73
2024/01/14 07:16:37;;;;;;;33.15;18.58;;;;;;;5.32;62.85;101220.19;5143904;27;20051;-66
2024/01/14 07:19:06;;;;;;;32.97;19.08;;;;;;;5.28;62.72;101217.06;5141000;27;20164;-66
2024/01/14 07:21:34;;;;;;;34.13;19.27;;;;;;;5.27;62.80;101223.38;5146209;27;20051;-66
2024/01/14 07:24:03;;;;;;;36.20;18.42;;;;;;;5.27;63.09;101219.91;5145563;27;20058;-67
2024/01/14 07:26:30;;;;;;;33.65;18.30;;;;;;;5.25;62.93;101228.06;5141431;27;20052;-67
2024/01/14 07:28:58;;;;;;;32.83;18.33;;;;;;;5.23;62.92;101222.91;5146890;27;20046;-68
2024/01/14 07:31:28;;;;;;;30.42;17.45;;;;;;;5.26;62.76;101228.91;5144282;27;20047;-67
2024/01/14 07:33:56;;;;;;;33.90;18.65;;;;;;;5.24;62.82;101229.06;5138202;27;20043;-66
2024/01/14 07:36:26;;;;;;;32.13;17.60;;;;;;;5.24;62.82;101226.41;5148956;27;20518;-67
2024/01/14 07:38:55;;;;;;;33.60;18.20;;;;;;;5.21;62.89;101219.59;5145636;27;20046;-68
2024/01/14 07:41:23;;;;;;;34.40;18.27;;;;;;;5.22;62.92;101223.09;5140224;27;20047;-69
2024/01/14 07:43:51;;;;;;;33.63;19.15;;;;;;;5.35;62.66;101206.50;5138584;27;20438;-72
2024/01/14 07:46:19;;;;;;;37.42;18.30;;;;;;;5.54;61.89;101211.34;5140617;27;20098;-68
2024/01/14 07:48:47;;;;;;;33.13;17.60;;;;;;;5.74;61.44;101203.66;5140796;27;20047;-70
2024/01/14 07:51:15;;;;;;;34.92;18.15;;;;;;;5.93;60.74;101208.50;5140555;27;20042;-63
2024/01/14 07:53:44;;;;;;;35.75;18.52;;;;;;;6.07;60.14;101209.53;5146373;27;20047;-66
2024/01/14 07:56:12;;;;;;;33.58;20.40;;;;;;;6.15;60.11;101212.13;5140168;27;20042;-70
2024/01/14 07:58:40;;;;;;;36.70;19.02;;;;;;;6.30;59.30;101210.28;5142928;27;20411;-69
2024/01/14 08:01:08;;;;;;;31.55;17.15;;;;;;;6.47;58.70;101210.91;5149782;27;20054;-70
2024/01/14 08:03:36;;;;;;;30.65;18.58;;;;;;;6.65;58.47;101210.50;5145743;27;20047;-69
2024/01/14 08:06:06;;;;;;;30.73;18.30;;;;;;;6.69;58.65;101206.44;5146665;27;20043;-70
2024/01/14 08:08:34;;;;;;;32.33;16.52;;;;;;;6.62;58.51;101213.56;5142689;27;20112;-71
2024/01/14 08:11:03;;;;;;;30.48;18.17;;;;;;;6.46;58.95;101206.56;5145251;27;20047;-69
2024/01/14 08:13:31;;;;;;;31.33;17.33;;;;;;;6.30;59.36;101201.44;5151409;27;20054;-69
2024/01/14 08:15:59;;;;;;;26.15;16.40;;;;;;;6.14;60.21;101205.94;5142841;27;20057;-69
2024/01/14 08:18:30;;;;;;;29.52;17.40;;;;;;;6.02;60.32;101210.09;5145206;27;20047;-69
2024/01/14 08:20:59;;;;;;;28.70;16.52;;;;;;;5.91;60.55;101205.19;5142990;27;20302;-72
2024/01/14 08:23:29;;;;;;;25.88;15.55;;;;;;;5.83;60.75;101203.41;5146700;27;20063;-72
2024/01/14 08:25:57;;;;;;;30.40;17.33;;;;;;;5.74;61.04;101206.34;5148961;27;20142;-72
2024/01/14 08:28:27;;;;;;;28.55;16.27;;;;;;;5.68;61.37;101217.72;5147286;27;20051;-67
2024/01/14 08:30:54;;;;;;;27.50;15.48;;;;;;;5.57;61.46;101217.16;5148770;27;20042;-70
2024/01/14 08:33:22;;;;;;;26.67;15.63;;;;;;;5.53;61.67;101217.69;5144919;27;20057;-71
2024/01/14 08:35:51;;;;;;;30.35;17.52;;;;;;;5.46;61.78;101214.09;4786078;27;9999922;-73
2024/01/14 08:38:18;;;;;;;25.92;15.55;;;;;;;5.42;62.14;101210.13;5139918;27;20239;-73
2024/01/14 08:40:46;;;;;;;29.25;16.55;;;;;;;5.39;62.46;101205.97;5131420;27;20050;-73
2024/01/14 08:43:14;;;;;;;31.88;16.77;;;;;;;5.39;62.25;101205.16;5138311;27;20051;-73
2024/01/14 08:45:44;;;;;;;26.17;15.43;;;;;;;5.35;62.22;101202.00;5140689;27;20080;-73
2024/01/14 08:48:13;;;;;;;29.92;16.85;;;;;;;5.36;62.36;101210.84;5139731;27;20061;-72
2024/01/14 08:50:42;;;;;;;29.65;16.30;;;;;;;5.34;62.48;101210.19;5138596;27;20141;-73
2024/01/14 08:53:10;;;;;;;29.13;16.90;;;;;;;5.31;62.39;101206.03;5136020;27;20081;-73
2024/01/14 08:55:37;;;;;;;30.70;17.45;;;;;;;5.30;62.36;101198.22;5139962;27;20059;-72
2024/01/14 08:58:05;;;;;;;30.55;16.77;;;;;;;5.24;62.63;101195.25;5140197;27;20047;-73
2024/01/14 09:00:33;;;;;;;29.27;16.92;;;;;;;5.24;62.46;101197.09;5139982;28;20100;-72
2024/01/14 09:03:03;;;;;;;29.73;17.33;;;;;;;5.23;62.82;101206.94;5139067;27;20047;-71
2024/01/14 09:05:31;;;;;;;28.35;17.25;;;;;;;5.21;62.89;101208.94;5139946;28;20063;-72
2024/01/14 09:07:58;;;;;;;29.33;17.05;;;;;;;5.16;62.76;101194.53;5136447;28;20058;-72
2024/01/14 09:10:26;;;;;;;30.40;16.50;;;;;;;5.19;62.75;101203.00;5140554;28;20103;-72
2024/01/14 09:12:54;;;;;;;30.63;16.02;;;;;;;5.09;62.88;101185.59;5139820;27;20043;-72
2024/01/14 09:15:22;;;;;;;31.00;17.05;;;;;;;5.18;63.09;101196.00;5135452;28;20056;-73
2024/01/14 09:17:51;;;;;;;30.35;17.10;;;;;;;5.18;62.96;101193.34;5133237;27;20051;-72
2024/01/14 09:20:20;;;;;;;30.65;17.50;;;;;;;5.18;63.11;101197.84;5147153;27;20047;-73
2024/01/14 09:22:48;;;;;;;31.55;17.08;;;;;;;5.23;62.78;101195.44;5139270;28;20055;-73
2024/01/14 09:25:16;;;;;;;28.25;16.48;;;;;;;5.38;62.33;101190.16;5136412;28;20082;-74
2024/01/14 09:27:44;;;;;;;33.65;18.83;;;;;;;5.55;61.74;101184.50;5139739;28;20039;-73
2024/01/14 09:30:13;;;;;;;37.20;21.05;;;;;;;5.51;61.72;101183.22;5138414;27;20051;-72
2024/01/14 09:32:41;;;;;;;38.80;20.40;;;;;;;5.43;62.07;101190.44;5143630;27;20076;-72
2024/01/14 09:35:09;;;;;;;37.03;19.58;;;;;;;5.45;62.30;101183.09;5142357;28;20047;-70
2024/01/14 09:37:38;;;;;;;35.70;20.30;;;;;;;5.64;61.64;101177.25;5143370;28;20433;-71
2024/01/14 09:40:07;;;;;;;34.05;19.50;;;;;;;5.91;60.78;101170.53;5142209;27;20039;-70
2024/01/14 09:42:39;;;;;;;33.85;19.33;;;;;;;6.14;61.23;101176.59;5132940;28;20047;-70
2024/01/14 09:45:08;;;;;;;33.15;19.23;;;;;;;6.39;60.71;101165.63;5142487;28;20408;-70
2024/01/14 09:47:36;;;;;;;35.10;20.20;;;;;;;6.60;60.47;101173.69;5143293;27;20047;-70
2024/01/14 09:50:06;;;;;;;35.70;19.27;;;;;;;6.80;59.80;101160.56;5138577;27;20066;-70
2024/01/14 09:52:35;;;;;;;40.30;19.63;;;;;;;6.78;59.33;101159.91;5139925;28;20047;-70
2024/01/14 09:55:05;;;;;;;35.58;20.52;;;;;;;6.63;60.13;101159.94;5142123;28;20048;-70
2024/01/14 09:57:35;;;;;;;37.28;20.05;;;;;;;6.48;60.09;101159.16;5143821;28;20043;-70
2024/01/14 10:00:05;;;;;;;36.53;20.05;;;;;;;6.27;60.72;101154.59;5144824;27;20058;-70
2024/01/14 10:02:34;;;;;;;36.13;19.35;;;;;;;6.12;61.61;101154.59;5143784;28;20173;-70
2024/01/14 10:05:01;;;;;;;34.90;19.55;;;;;;;6.00;62.03;101152.59;5154188;27;20416;-70
2024/01/14 10:07:30;;;;;;;36.05;20.00;;;;;;;5.90;62.37;101152.84;5148017;27;20047;-70
2024/01/14 10:09:58;;;;;;;36.38;19.65;;;;;;;5.84;62.34;101157.06;5148334;27;20062;-70
2024/01/14 10:12:27;;;;;;;39.97;21.35;;;;;;;5.77;62.26;101158.81;5143551;27;20051;-69
2024/01/14 10:14:59;;;;;;;32.78;18.85;;;;;;;5.70;62.40;101155.22;5146725;27;20053;-70
2024/01/14 10:17:27;;;;;;;34.30;20.42;;;;;;;5.66;62.67;101153.91;5146404;27;20055;-70
2024/01/14 10:19:57;;;;;;;37.47;20.08;;;;;;;5.62;62.80;101149.94;5144170;27;20055;-70
2024/01/14 10:22:26;;;;;;;35.95;20.70;;;;;;;5.60;63.03;101153.81;5144648;27;20071;-70
2024/01/14 10:24:55;;;;;;;34.03;18.90;;;;;;;5.56;62.52;101148.00;5147733;27;20047;-70
2024/01/14 10:27:25;;;;;;;35.63;18.77;;;;;;;5.52;62.96;101150.22;5146358;27;20076;-71
2024/01/14 10:30:10;;;;;;;35.65;19.90;;;;;;;5.48;63.28;101142.75;5135810;27;20054;-72
2024/01/14 10:32:40;;;;;;;34.97;19.20;;;;;;;5.47;63.27;101130.44;5145835;27;20065;-71
2024/01/14 10:35:28;;;;;;;32.97;19.20;;;;;;;5.42;63.69;101125.66;5148375;27;20112;-71
2024/01/14 10:37:57;;;;;;;34.58;19.33;;;;;;;5.42;63.36;101124.81;5139641;27;20126;-70
2024/01/14 10:40:26;;;;;;;35.55;19.42;;;;;;;5.39;63.66;101117.19;5143341;27;20047;-70
2024/01/14 10:42:54;;;;;;;38.70;20.27;;;;;;;5.38;63.52;101110.22;5139793;27;20043;-71
2024/01/14 10:45:24;;;;;;;34.25;18.02;;;;;;;5.35;63.63;101113.25;5147934;27;20134;-71
2024/01/14 10:47:56;;;;;;;29.58;17.38;;;;;;;5.35;63.67;101121.22;5144817;27;20047;-71
2024/01/14 10:50:27;;;;;;;32.47;18.60;;;;;;;5.32;63.74;101113.59;5140284;27;20123;-71
2024/01/14 10:53:15;;;;;;;33.75;20.33;;;;;;;5.30;63.71;101111.13;5146761;27;20043;-71
2024/01/14 10:55:47;;;;;;;33.35;18.70;;;;;;;5.30;63.47;101104.97;5150807;27;20574;-71
2024/01/14 10:58:24;;;;;;;38.85;20.95;;;;;;;5.31;63.67;101104.78;5141084;27;20151;-67
2024/01/14 11:00:57;;;;;;;33.15;19.00;;;;;;;5.34;63.54;101096.41;5144279;27;20047;-71
2024/01/14 11:03:26;;;;;;;33.42;19.90;;;;;;;5.38;63.34;101095.03;5142944;27;20042;-70
2024/01/14 11:05:55;;;;;;;36.15;19.55;;;;;;;5.37;63.24;101088.06;5149907;27;20047;-71
2024/01/14 11:08:24;;;;;;;31.67;18.20;;;;;;;5.38;63.36;101087.06;5143917;27;20048;-71
2024/01/14 11:10:53;;;;;;;32.88;18.35;;;;;;;5.43;63.49;101078.50;5138359;27;20039;-69
2024/01/14 11:13:25;;;;;;;30.85;18.70;;;;;;;5.56;62.85;101078.69;5145551;27;20051;-69
2024/01/14 11:16:00;;;;;;;34.03;18.80;;;;;;;5.73;62.44;101061.50;5146628;27;20096;-70
2024/01/14 11:18:34;;;;;;;29.90;17.95;;;;;;;5.96;62.18;101065.94;5142839;27;20047;-70
2024/01/14 11:21:19;;;;;;;31.35;18.25;;;;;;;6.15;60.77;101050.16;5144845;27;20043;-71
2024/01/14 11:24:07;;;;;;;35.28;18.25;;;;;;;6.39;60.25;101043.66;4427305;27;10001105;-70